TNCM Airport Information

Runway Information
Runway 09 Length 7708 ft width 148 ft
Elevation 11 ft Threshold 162 ft Heading 81
Runway 27 Length 7708 ft Width 148 ft
Elevation 11 ft Threshold 394 ft Heading 261
Runway 10 Length 7152 ft width 148 ft
Elevation 12 ft Threshold 0 ft Heading 81
Runway 28 Length 7152 ft Width 148 ft
Elevation 9 ft Threshold 0 ft Heading 261
Airport Frequencies
Type APP Name JULIANA AP Frequency 128.95 MHZ
Type TWR Name JULIANA TW Frequency 118.7 MHZ
Airport Navaids
Type NDB Name St.mMarten Frequency 284 KHZ
Type VOR-DME Name St.mMarten Frequency 113000 KHZ
Airport Weather Information & NOTAM
ADDS - METARS form results

(0153 UTC 19 January 2018)
 
METAR text: TNCM 190100Z 09007KT 050V130 9999 FEW018 26/22 Q1017 A3004 NOSIG
Conditions at: TNCM (ST MAARTEN JULIA, VI) observed 0100 UTC 19 January 2018
Temperature: 26.0°C (79°F)
Dewpoint: 22.0°C (72°F) [RH = 79%]
Pressure (altimeter): 30.03 inches Hg (1017.0 mb)
Winds: from the E (90 degrees) at 8 MPH (7 knots; 3.6 m/s)
Visibility: 6 or more miles (10+ km)
Ceiling: at least 12,000 feet AGL
Clouds: few clouds at 1800 feet AGL
Weather: no significant weather observed at this time